Time;durP1;ratioP1;P1;durP2;ratioP2;P2;SDS_P1;SDS_P2;PMS_P1;PMS_P2;Temp;Humidity;BMP_temperature;BMP_pressure;BME280_temperature;BME280_humidity;BME280_pressure;Samples;Min_cycle;Max_cycle;Signal;HPM_P1;HPM_P2
2024/02/07 00:01:53;;;;;;;59.83;31.35;;;180.00;2252.80;;;;;;4825791;29;20025;-71
2024/02/07 00:04:19;;;;;;;20.75;11.88;;;179.90;2252.80;;;;;;4830466;29;20041;-70
2024/02/07 00:06:45;;;;;;;19.83;11.95;;;179.60;2252.80;;;;;;4837870;29;20022;-70
2024/02/07 00:09:10;;;;;;;16.92;8.82;;;179.50;2252.80;;;;;;4837457;29;20477;-71
2024/02/07 00:11:36;;;;;;;17.48;10.05;;;179.50;2252.80;;;;;;4834805;29;20026;-72
2024/02/07 00:14:02;;;;;;;86.13;49.00;;;179.40;2252.80;;;;;;4831215;29;20037;-72
2024/02/07 00:16:28;;;;;;;16.48;10.38;;;179.40;2252.80;;;;;;4822673;29;20074;-72
2024/02/07 00:18:54;;;;;;;141.38;73.55;;;179.50;2252.80;;;;;;4830469;29;20376;-72
2024/02/07 00:21:20;;;;;;;183.32;102.90;;;179.50;2252.80;;;;;;4838085;29;20476;-72
2024/02/07 00:23:46;;;;;;;54.50;30.95;;;179.50;2252.80;;;;;;4845159;29;20064;-72
2024/02/07 00:26:12;;;;;;;67.75;35.42;;;179.40;2252.80;;;;;;4840463;29;20477;-72
2024/02/07 00:28:38;;;;;;;19.38;13.40;;;179.40;2252.80;;;;;;4832187;29;20498;-72
2024/02/07 00:31:05;;;;;;;16.13;11.10;;;179.40;2252.80;;;;;;4837699;29;20035;-72
2024/02/07 00:33:30;;;;;;;52.08;21.35;;;179.50;2252.80;;;;;;4838130;29;20398;-71
2024/02/07 00:35:56;;;;;;;20.15;13.07;;;179.60;2252.80;;;;;;4837822;29;20030;-71
2024/02/07 00:38:22;;;;;;;19.70;11.15;;;179.50;2252.80;;;;;;4825945;29;20041;-72
2024/02/07 00:40:49;;;;;;;15.82;9.52;;;179.50;2252.80;;;;;;4838185;29;20026;-71
2024/02/07 00:43:15;;;;;;;38.13;22.35;;;179.40;2252.80;;;;;;4836711;29;20054;-74
2024/02/07 00:45:42;;;;;;;25.13;15.05;;;179.50;2252.80;;;;;;4831994;29;20106;-72
2024/02/07 00:48:07;;;;;;;63.63;34.33;;;179.50;2252.80;;;;;;4837914;29;20026;-72
2024/02/07 00:50:33;;;;;;;49.28;28.85;;;179.60;2252.80;;;;;;4837575;29;20042;-72
2024/02/07 00:52:59;;;;;;;56.35;34.58;;;179.60;2252.80;;;;;;4837684;29;20030;-73
2024/02/07 00:55:25;;;;;;;74.05;43.28;;;179.60;2252.80;;;;;;4837760;29;20050;-72
2024/02/07 00:57:51;;;;;;;35.30;19.08;;;179.60;2252.80;;;;;;4837949;29;20055;-72
2024/02/07 01:00:19;;;;;;;27.17;16.75;;;179.60;2252.80;;;;;;4837028;29;20470;-71
2024/02/07 01:02:45;;;;;;;25.83;14.65;;;179.70;2252.80;;;;;;4837616;29;20026;-72
2024/02/07 01:05:11;;;;;;;81.25;43.92;;;179.60;2252.80;;;;;;4837745;29;20398;-72
2024/02/07 01:07:37;;;;;;;282.38;166.98;;;179.60;2252.80;;;;;;4837721;29;20026;-72
2024/02/07 01:10:04;;;;;;;251.20;145.82;;;179.70;2252.80;;;;;;4829442;29;20041;-72
2024/02/07 01:12:30;;;;;;;33.95;19.70;;;179.70;2252.80;;;;;;4837608;29;20058;-74
2024/02/07 01:14:56;;;;;;;30.67;18.48;;;179.60;2252.80;;;;;;4837747;29;20500;-75
2024/02/07 01:17:22;;;;;;;35.20;18.20;;;179.60;2252.80;;;;;;4837506;29;20038;-76
2024/02/07 01:19:50;;;;;;;25.75;15.52;;;179.60;2252.80;;;;;;4837821;29;20018;-76
2024/02/07 01:22:16;;;;;;;42.72;24.33;;;179.60;2252.80;;;;;;4840119;29;20069;-76
2024/02/07 01:24:42;;;;;;;134.00;68.35;;;179.50;2252.80;;;;;;4841226;29;20498;-75
2024/02/07 01:27:07;;;;;;;26.33;15.57;;;179.40;2252.80;;;;;;4840694;29;20520;-76
2024/02/07 01:29:37;;;;;;;13.85;9.35;;;179.40;2252.80;;;;;;4840854;29;20069;-72
2024/02/07 01:32:04;;;;;;;26.25;15.82;;;179.50;2252.80;;;;;;4840682;29;20481;-72
2024/02/07 01:34:30;;;;;;;27.40;17.17;;;179.40;2252.80;;;;;;4840611;29;20045;-71
2024/02/07 01:36:56;;;;;;;22.35;13.05;;;179.50;2252.80;;;;;;4840498;29;20026;-72
2024/02/07 01:39:23;;;;;;;21.17;11.50;;;179.40;2252.80;;;;;;4840670;29;20069;-71
2024/02/07 01:42:07;;;;;;;21.90;10.93;;;179.40;2252.80;;;;;;4840581;29;20503;-72
2024/02/07 01:44:32;;;;;;;22.00;14.10;;;179.40;2252.80;;;;;;4840937;29;20038;-71
2024/02/07 01:47:13;;;;;;;50.78;31.30;;;179.30;2252.80;;;;;;4840463;29;20056;-74
2024/02/07 01:49:45;;;;;;;32.80;29.23;;;179.40;2252.80;;;;;;4840400;29;20554;-72
2024/02/07 01:52:12;;;;;;;34.22;21.92;;;179.30;2252.80;;;;;;4840528;29;20044;-72
2024/02/07 01:54:40;;;;;;;56.50;31.85;;;179.30;2252.80;;;;;;4840048;29;20056;-71
2024/02/07 01:57:07;;;;;;;26.45;14.93;;;154.50;2252.80;;;;;;4840373;29;20033;-72
2024/02/07 01:59:33;;;;;;;26.98;15.00;;;154.50;2252.80;;;;;;4840528;29;20054;-71
2024/02/07 02:01:59;;;;;;;39.28;25.13;;;179.20;2252.80;;;;;;4840204;29;20473;-72
2024/02/07 02:04:25;;;;;;;34.83;23.02;;;179.30;2252.80;;;;;;4839969;29;20041;-72
2024/02/07 02:06:52;;;;;;;22.27;13.48;;;179.40;2252.80;;;;;;4840297;29;20109;-71
2024/02/07 02:09:19;;;;;;;27.80;12.45;;;179.40;2252.80;;;;;;4839779;29;20034;-74
2024/02/07 02:11:48;;;;;;;24.75;16.38;;;179.50;2252.80;;;;;;4840340;29;20034;-71
2024/02/07 02:14:15;;;;;;;33.33;20.23;;;179.40;2252.80;;;;;;4839796;29;20044;-72
2024/02/07 02:16:41;;;;;;;49.05;28.00;;;179.50;2252.80;;;;;;4839772;29;20037;-73
2024/02/07 02:19:08;;;;;;;47.67;25.05;;;179.50;2252.80;;;;;;4839869;29;20018;-71
2024/02/07 02:21:50;;;;;;;33.30;20.60;;;179.50;2252.80;;;;;;4849063;29;20056;-73
2024/02/07 02:24:48;;;;;;;44.92;25.35;;;179.50;2252.80;;;;;;4840275;29;20042;-73
2024/02/07 02:27:45;;;;;;;21.75;12.43;;;179.50;2252.80;;;;;;4800827;29;20401;-72
2024/02/07 02:30:19;;;;;;;20.40;13.18;;;179.50;2252.80;;;;;;4801005;29;20042;-76
2024/02/07 02:32:48;;;;;;;16.35;11.13;;;179.40;2252.80;;;;;;4800289;29;20027;-74
2024/02/07 02:35:18;;;;;;;16.60;9.52;;;179.20;2252.80;;;;;;4800564;29;20395;-75
2024/02/07 02:37:45;;;;;;;18.83;11.95;;;179.30;2252.80;;;;;;4800818;29;20066;-75
2024/02/07 02:40:11;;;;;;;19.25;11.93;;;179.30;2252.80;;;;;;4800673;29;20508;-75
2024/02/07 02:42:37;;;;;;;38.53;21.95;;;179.30;2252.80;;;;;;4800890;29;20047;-74
2024/02/07 02:45:03;;;;;;;68.53;40.55;;;179.30;2252.80;;;;;;4800652;29;21437;-74
2024/02/07 02:47:31;;;;;;;32.88;19.40;;;179.40;2252.80;;;;;;4800889;29;20137;-76
2024/02/07 02:49:57;;;;;;;28.88;17.90;;;179.40;2252.80;;;;;;4800565;29;20617;-76
2024/02/07 02:52:23;;;;;;;22.63;14.10;;;179.40;2252.80;;;;;;4800609;29;20058;-74
2024/02/07 02:54:49;;;;;;;21.25;12.02;;;179.40;2252.80;;;;;;4800607;29;20163;-76
2024/02/07 02:57:17;;;;;;;16.60;11.82;;;179.20;2252.80;;;;;;4800820;29;20479;-72
2024/02/07 02:59:43;;;;;;;18.17;11.98;;;154.50;2252.80;;;;;;4800569;29;20082;-71
2024/02/07 03:02:09;;;;;;;19.73;10.57;;;179.20;2252.80;;;;;;4805152;29;20497;-72
2024/02/07 03:04:41;;;;;;;18.05;13.02;;;154.50;2252.80;;;;;;4835950;29;20065;-72
2024/02/07 03:09:55;;;;;;;14.10;9.93;;;154.20;2252.80;;;;;;4839093;29;20063;-71
2024/02/07 03:12:21;;;;;;;17.17;10.07;;;;;;;;;;4822398;29;20037;-71
2024/02/07 03:14:47;;;;;;;19.27;13.90;;;154.40;2252.80;;;;;;4839057;29;20057;-72
2024/02/07 03:17:13;;;;;;;17.60;12.18;;;154.30;2252.80;;;;;;4838579;29;20469;-71
2024/02/07 03:19:39;;;;;;;17.83;10.95;;;154.20;2252.80;;;;;;4838891;29;20033;-72
2024/02/07 03:22:06;;;;;;;24.48;13.63;;;154.20;2252.80;;;;;;4838909;29;20022;-72
2024/02/07 03:24:32;;;;;;;15.38;10.45;;;154.20;2252.80;;;;;;4837733;29;20093;-72
2024/02/07 03:26:58;;;;;;;14.32;8.68;;;;;;;;;;4838748;29;20079;-71
2024/02/07 03:29:25;;;;;;;15.60;9.43;;;;;;;;;;4838692;29;20029;-72
2024/02/07 03:31:53;;;;;;;14.65;9.43;;;;;;;;;;4838778;29;20018;-72
2024/02/07 03:34:20;;;;;;;17.55;9.38;;;;;;;;;;4838841;29;20026;-70
2024/02/07 03:36:46;;;;;;;15.50;10.05;;;;;;;;;;4838575;29;20026;-71
2024/02/07 03:39:13;;;;;;;17.35;10.07;;;;;;;;;;4838492;29;20129;-71
2024/02/07 03:41:41;;;;;;;49.45;26.20;;;;;;;;;;4838448;29;20543;-72
2024/02/07 03:44:12;;;;;;;36.40;21.00;;;154.10;2252.80;;;;;;4837752;29;20029;-71
2024/02/07 03:46:40;;;;;;;20.30;11.25;;;153.90;2252.80;;;;;;4838402;29;20045;-72
2024/02/07 03:49:07;;;;;;;15.70;10.35;;;153.80;2252.80;;;;;;4838309;29;20030;-73
2024/02/07 03:51:35;;;;;;;43.10;27.13;;;153.80;2252.80;;;;;;4838358;29;20038;-72
2024/02/07 03:54:04;;;;;;;28.50;17.10;;;153.70;2252.80;;;;;;4838443;29;20054;-71
2024/02/07 03:56:30;;;;;;;41.95;25.52;;;153.80;2252.80;;;;;;4838476;29;20029;-71
2024/02/07 03:58:57;;;;;;;43.38;23.80;;;153.60;2252.80;;;;;;4838523;29;20486;-73
2024/02/07 04:01:24;;;;;;;17.40;10.88;;;128.90;2252.80;;;;;;4838127;29;20014;-72
2024/02/07 04:03:49;;;;;;;19.42;11.15;;;128.70;2252.80;;;;;;4838194;29;20045;-71
2024/02/07 04:06:16;;;;;;;10.60;7.95;;;128.70;2252.80;;;;;;4838212;29;20030;-73
2024/02/07 04:08:42;;;;;;;12.23;7.82;;;128.60;2252.80;;;;;;4838434;29;20034;-71
2024/02/07 05:16:20;;;;;;;18.90;16.05;;;128.60;2252.80;;;;;;4829483;29;20057;-71
2024/02/07 05:18:45;;;;;;;23.30;12.20;;;128.70;2252.80;;;;;;4840848;29;20358;-73
2024/02/07 05:21:12;;;;;;;16.65;9.82;;;128.80;2252.80;;;;;;4829032;29;20030;-71
2024/02/07 05:23:41;;;;;;;11.07;8.18;;;128.80;2252.80;;;;;;4841144;29;20042;-72
2024/02/07 05:26:10;;;;;;;19.70;10.65;;;128.80;2252.80;;;;;;4829200;29;20516;-71
2024/02/07 05:28:36;;;;;;;23.85;11.90;;;128.90;2252.80;;;;;;4840851;29;20026;-71
2024/02/07 05:31:02;;;;;;;23.85;12.40;;;128.90;2252.80;;;;;;4841193;29;20901;-71
2024/02/07 05:33:28;;;;;;;21.30;9.90;;;153.60;2252.80;;;;;;4840710;29;20512;-71
2024/02/07 05:35:54;;;;;;;11.27;7.03;;;128.90;2252.80;;;;;;4834429;29;20165;-71
2024/02/07 05:38:20;;;;;;;11.52;7.57;;;128.90;2252.80;;;;;;4835564;29;20033;-73
2024/02/07 05:40:45;;;;;;;13.43;8.45;;;128.70;2252.80;;;;;;4838190;29;20378;-71
2024/02/07 05:43:11;;;;;;;16.58;10.07;;;128.50;2252.80;;;;;;4832768;29;20154;-72
2024/02/07 05:45:37;;;;;;;12.40;9.25;;;128.40;2252.80;;;;;;4839353;29;20073;-72
2024/02/07 05:48:03;;;;;;;13.65;8.00;;;128.40;2252.80;;;;;;4832706;29;20352;-72
2024/02/07 05:50:29;;;;;;;35.45;20.80;;;128.40;2252.80;;;;;;4840560;29;20382;-72
2024/02/07 05:52:55;;;;;;;18.75;10.20;;;128.60;2252.80;;;;;;4840258;29;20034;-72
2024/02/07 05:55:20;;;;;;;18.58;10.25;;;128.70;2252.80;;;;;;4840506;29;20041;-71
2024/02/07 05:57:49;;;;;;;13.27;8.93;;;128.80;2252.80;;;;;;4840342;29;20430;-71
2024/02/07 06:00:15;;;;;;;10.02;6.80;;;128.90;2252.80;;;;;;4842488;29;20179;-71
2024/02/07 06:02:41;;;;;;;14.27;8.80;;;128.90;2252.80;;;;;;4840410;29;20093;-72
2024/02/07 06:05:07;;;;;;;17.75;12.13;;;128.90;2252.80;;;;;;4839999;29;20038;-72
2024/02/07 06:07:33;;;;;;;25.55;15.13;;;128.90;2252.80;;;;;;4839348;29;20052;-71
2024/02/07 06:10:00;;;;;;;17.90;12.93;;;128.70;2252.80;;;;;;4843669;29;20034;-70
2024/02/07 06:12:27;;;;;;;40.15;22.27;;;128.60;2252.80;;;;;;4844232;29;20372;-71
2024/02/07 06:14:56;;;;;;;82.47;57.92;;;128.80;2252.80;;;;;;4843832;29;20034;-77
2024/02/07 06:21:19;;;;;;;20.58;10.95;;;128.90;2252.80;;;;;;4843918;29;20044;-74
2024/02/07 06:23:47;;;;;;;19.83;15.35;;;128.70;2252.80;;;;;;4843727;29;20049;-75
2024/02/07 06:26:13;;;;;;;14.93;10.45;;;128.50;2252.80;;;;;;4843680;29;20455;-73
2024/02/07 06:28:39;;;;;;;13.57;9.15;;;128.70;2252.80;;;;;;4844520;29;20380;-77
2024/02/07 06:31:04;;;;;;;12.40;7.93;;;128.80;2252.80;;;;;;4844053;29;20111;-72
2024/02/07 06:33:30;;;;;;;18.27;12.50;;;128.90;2252.80;;;;;;4843463;29;20499;-72
2024/02/07 06:35:56;;;;;;;57.55;30.38;;;153.60;2252.80;;;;;;4843429;29;20055;-74
2024/02/07 06:38:21;;;;;;;14.68;9.35;;;154.00;2252.80;;;;;;4843895;29;20073;-71
2024/02/07 06:40:47;;;;;;;15.98;10.90;;;153.90;2252.80;;;;;;4826800;29;20062;-72
2024/02/07 06:43:13;;;;;;;17.17;10.88;;;153.60;2252.80;;;;;;4843516;29;20086;-71
2024/02/07 06:45:38;;;;;;;16.48;11.00;;;128.90;2252.80;;;;;;4843376;29;20389;-73
2024/02/07 06:48:05;;;;;;;13.73;10.65;;;128.90;2252.80;;;;;;4843300;29;20489;-71
2024/02/07 06:50:31;;;;;;;14.50;9.52;;;153.70;2252.80;;;;;;4843097;29;20026;-71
2024/02/07 06:52:57;;;;;;;15.77;10.38;;;153.70;2252.80;;;;;;4842879;29;20041;-71
2024/02/07 06:55:23;;;;;;;20.67;12.65;;;153.70;2252.80;;;;;;4843319;29;20034;-72
2024/02/07 06:57:49;;;;;;;23.40;14.05;;;153.60;2252.80;;;;;;4843066;29;20101;-70
2024/02/07 07:00:16;;;;;;;21.98;12.60;;;153.60;2252.80;;;;;;4843210;29;20082;-72
2024/02/07 07:02:42;;;;;;;19.65;10.63;;;153.60;2252.80;;;;;;4843396;29;20034;-72
2024/02/07 07:08:30;;;;;;;14.20;8.90;;;153.90;2252.80;;;;;;4843090;29;20089;-72
2024/02/07 07:10:56;;;;;;;35.55;23.52;;;154.10;2252.80;;;;;;4842976;29;20113;-72
2024/02/07 07:13:21;;;;;;;49.40;32.88;;;154.40;2252.80;;;;;;4826605;29;20042;-71
2024/02/07 07:15:47;;;;;;;49.05;33.00;;;179.30;2252.80;;;;;;4842652;29;20030;-70
2024/02/07 07:18:13;;;;;;;26.10;18.17;;;179.50;2252.80;;;;;;4842393;29;20048;-71
2024/02/07 07:20:40;;;;;;;21.02;15.02;;;179.50;2252.80;;;;;;4841883;29;20033;-71
2024/02/07 07:23:06;;;;;;;19.63;12.32;;;179.40;2252.80;;;;;;4839103;29;20026;-71
2024/02/07 07:25:32;;;;;;;20.40;14.73;;;179.50;2252.80;;;;;;4839240;29;20497;-72
2024/02/07 07:27:58;;;;;;;20.27;12.00;;;179.60;2252.80;;;;;;4839065;29;20105;-71
2024/02/07 07:30:24;;;;;;;21.95;12.45;;;179.90;2252.80;;;;;;4839115;29;20030;-72
2024/02/07 07:32:49;;;;;;;19.25;14.52;;;179.90;2252.80;;;;;;4838870;29;20030;-71
2024/02/07 07:35:15;;;;;;;48.92;28.10;;;180.00;2252.80;;;;;;4838456;29;20036;-72
2024/02/07 07:37:41;;;;;;;28.13;18.23;;;180.10;2252.80;;;;;;4838714;29;20434;-71
2024/02/07 07:40:07;;;;;;;46.42;35.70;;;204.90;2252.80;;;;;;4838544;29;20044;-71
2024/02/07 07:42:33;;;;;;;30.73;21.05;;;205.10;2252.80;;;;;;4839166;29;20034;-72
2024/02/07 07:44:58;;;;;;;21.27;15.30;;;205.40;2252.80;;;;;;4820582;29;20038;-70
2024/02/07 07:47:26;;;;;;;19.02;11.63;;;230.40;2252.80;;;;;;4822411;29;20050;-69
2024/02/07 07:49:51;;;;;;;20.70;13.77;;;230.50;2252.80;;;;;;4838222;29;20037;-71
2024/02/07 07:52:17;;;;;;;61.83;45.67;;;230.70;2252.80;;;;;;4831016;29;20027;-72
2024/02/07 07:54:43;;;;;;;33.97;25.88;;;231.00;2252.80;;;;;;4830988;29;20502;-71
2024/02/07 07:57:09;;;;;;;20.45;14.20;;;256.60;2252.80;;;;;;4847046;29;20429;-70
2024/02/07 07:59:34;;;;;;;15.27;11.52;;;282.10;2278.40;;;;;;4840476;29;20041;-71
2024/02/07 08:02:01;;;;;;;35.35;28.17;;;307.20;2304.00;;;;;;4838997;29;20029;-70
2024/02/07 08:04:27;;;;;;;31.58;24.55;;;307.20;2304.00;;;;;;4837842;29;20042;-71
2024/02/07 08:06:55;;;;;;;20.55;15.80;;;307.20;2304.00;;;;;;4838301;29;20029;-71
2024/02/07 08:09:22;;;;;;;21.55;13.45;;;307.60;2304.00;;;;;;4838334;29;20033;-71
2024/02/07 08:11:48;;;;;;;13.40;10.95;;;332.80;2329.60;;;;;;4838474;29;20064;-71
2024/02/07 08:14:14;;;;;;;38.13;14.90;;;333.40;2329.60;;;;;;4838126;29;20052;-70
2024/02/07 08:16:41;;;;;;;19.10;13.13;;;333.50;2329.60;;;;;;4838520;29;20034;-71
2024/02/07 08:19:08;;;;;;;45.90;15.43;;;358.50;2304.00;;;;;;4832360;29;20520;-71
2024/02/07 08:21:33;;;;;;;20.42;15.48;;;384.70;2176.00;;;;;;4828828;29;20050;-72
2024/02/07 08:24:00;;;;;;;21.75;18.77;;;435.30;2048.00;;;;;;4831861;29;20381;-72
2024/02/07 08:26:26;;;;;;;34.50;23.95;;;461.00;1971.20;;;;;;4830199;29;20035;-70
2024/02/07 08:28:52;;;;;;;26.15;21.45;;;461.50;1894.40;;;;;;4837433;29;20061;-71
2024/02/07 08:31:18;;;;;;;22.75;20.33;;;487.00;1843.20;;;;;;4835896;29;20518;-73
2024/02/07 08:33:44;;;;;;;22.50;20.10;;;512.90;1715.20;;;;;;4832139;29;20030;-72
2024/02/07 08:36:09;;;;;;;29.10;25.95;;;538.40;1689.60;;;;;;4827582;29;20026;-70
2024/02/07 08:38:35;;;;;;;26.73;23.85;;;563.80;1664.00;;;;;;4829616;29;20030;-72
2024/02/07 08:41:01;;;;;;;38.83;33.15;;;589.50;1587.20;;;;;;4828044;29;20030;-81
2024/02/07 08:43:27;;;;;;;31.52;28.27;;;615.20;1484.80;;;;;;4829164;29;20041;-78
2024/02/07 08:45:53;;;;;;;54.28;45.78;;;615.10;1484.80;;;;;;4827168;29;20039;-76
2024/02/07 08:48:19;;;;;;;57.50;50.40;;;615.10;1484.80;;;;;;4828854;29;20037;-76
2024/02/07 08:50:44;;;;;;;30.42;27.35;;;640.40;1459.20;;;;;;4840704;29;20037;-79
2024/02/07 08:53:13;;;;;;;33.60;29.05;;;665.70;1433.60;;;;;;4829631;29;20039;-79
2024/02/07 08:55:38;;;;;;;45.83;37.70;;;640.70;1433.60;;;;;;4829470;29;20038;-80
2024/02/07 08:58:04;;;;;;;41.38;36.85;;;666.00;1408.00;;;;;;4827022;29;20485;-73
2024/02/07 09:00:30;;;;;;;43.53;38.88;;;665.70;1408.00;;;;;;4825065;29;20042;-75
2024/02/07 09:02:56;;;;;;;37.35;33.40;;;589.60;1510.40;;;;;;4836758;29;20492;-75
2024/02/07 09:05:22;;;;;;;51.28;42.13;;;589.10;1536.00;;;;;;4808058;29;20048;-73
2024/02/07 09:07:48;;;;;;;62.85;53.10;;;563.80;1561.60;;;;;;4821469;29;20474;-77
2024/02/07 09:10:14;;;;;;;62.20;55.47;;;564.10;1561.60;;;;;;4823682;29;20026;-78
2024/02/07 09:12:43;;;;;;;54.28;48.47;;;588.90;1536.00;;;;;;4828941;29;20030;-74
2024/02/07 09:15:09;;;;;;;58.80;52.50;;;614.90;1484.80;;;;;;4838579;29;20057;-74
2024/02/07 09:17:35;;;;;;;44.22;39.40;;;615.00;1459.20;;;;;;4828306;29;20476;-75
2024/02/07 09:20:01;;;;;;;41.75;37.15;;;614.80;1459.20;;;;;;4840449;29;20037;-76
2024/02/07 09:22:27;;;;;;;61.17;52.85;;;640.70;1382.40;;;;;;4839180;29;20106;-76
2024/02/07 09:24:53;;;;;;;52.00;46.40;;;640.50;1382.40;;;;;;4839073;29;20620;-74
2024/02/07 09:27:19;;;;;;;52.25;46.78;;;640.10;1408.00;;;;;;4839707;29;20082;-74
2024/02/07 09:29:45;;;;;;;59.35;49.28;;;665.70;1382.40;;;;;;4840815;29;20022;-74
2024/02/07 09:32:11;;;;;;;303.48;139.40;;;666.30;1356.80;;;;;;4839600;29;20033;-86
2024/02/07 09:34:42;;;;;;;441.58;233.55;;;666.20;1331.20;;;;;;4840637;29;20036;-79
2024/02/07 09:37:08;;;;;;;195.82;132.13;;;666.30;1356.80;;;;;;4839420;29;20026;-82
2024/02/07 09:39:34;;;;;;;322.80;192.13;;;666.30;1331.20;;;;;;4841059;29;20032;-83
2024/02/07 09:42:03;;;;;;;134.13;108.22;;;665.60;1382.40;;;;;;4840956;29;20037;-82
2024/02/07 09:44:31;;;;;;;84.40;72.53;;;614.50;1459.20;;;;;;4840784;29;20026;-83
2024/02/07 09:47:00;;;;;;;77.05;68.63;;;563.50;1536.00;;;;;;4840454;29;20038;-74
2024/02/07 09:49:28;;;;;;;53.13;46.38;;;538.40;1561.60;;;;;;4840434;29;20104;-77
2024/02/07 09:51:54;;;;;;;46.75;40.95;;;538.00;1561.60;;;;;;4840303;29;20034;-78
2024/02/07 09:54:20;;;;;;;50.38;38.65;;;487.20;1638.40;;;;;;4840438;29;20061;-74
2024/02/07 09:56:47;;;;;;;50.65;35.90;;;486.80;1664.00;;;;;;4840754;29;20040;-75
2024/02/07 09:59:13;;;;;;;59.47;37.75;;;461.60;1715.20;;;;;;4840500;29;20030;-78
2024/02/07 10:01:39;;;;;;;45.85;32.22;;;435.90;1766.40;;;;;;4840639;29;20133;-75
2024/02/07 10:04:34;;;;;;;31.50;24.83;;;435.70;1792.00;;;;;;4839966;29;20032;-74
2024/02/07 10:07:00;;;;;;;39.28;25.75;;;435.40;1792.00;;;;;;4801784;29;20046;-75
2024/02/07 10:09:29;;;;;;;41.65;29.58;;;435.40;1817.60;;;;;;4801345;29;20124;-75
2024/02/07 10:11:56;;;;;;;57.20;38.13;;;435.40;1817.60;;;;;;4801683;29;20567;-75
2024/02/07 10:14:23;;;;;;;47.53;36.65;;;410.30;1868.80;;;;;;4801599;29;20524;-78
2024/02/07 10:16:49;;;;;;;47.20;35.50;;;410.50;1868.80;;;;;;4801906;29;20027;-82
2024/02/07 10:19:14;;;;;;;55.78;42.60;;;435.20;1868.80;;;;;;4801160;29;20050;-74
2024/02/07 10:21:40;;;;;;;60.83;41.08;;;410.50;1894.40;;;;;;4801682;29;20039;-75
2024/02/07 10:24:07;;;;;;;77.70;49.63;;;435.50;1868.80;;;;;;4801224;29;20049;-76
2024/02/07 10:26:32;;;;;;;65.25;48.28;;;435.20;1894.40;;;;;;4801753;29;20067;-75
2024/02/07 10:29:04;;;;;;;70.88;46.92;;;435.20;1894.40;;;;;;4801458;29;20031;-74
2024/02/07 10:31:30;;;;;;;53.47;38.85;;;410.50;1894.40;;;;;;4801516;29;20045;-75
2024/02/07 10:33:59;;;;;;;53.72;37.08;;;435.40;1868.80;;;;;;4800936;29;20050;-73
2024/02/07 10:36:25;;;;;;;53.92;41.55;;;435.60;1843.20;;;;;;4801194;29;20039;-73
2024/02/07 10:39:03;;;;;;;59.40;39.95;;;435.90;1843.20;;;;;;4801257;29;20477;-73
2024/02/07 10:41:29;;;;;;;57.67;38.45;;;435.50;1868.80;;;;;;4801494;29;20031;-74
2024/02/07 10:44:05;;;;;;;70.47;48.47;;;435.20;1894.40;;;;;;4817804;29;20109;-80
2024/02/07 10:46:31;;;;;;;64.40;45.10;;;435.50;1894.40;;;;;;4839778;29;20090;-73
2024/02/07 10:48:58;;;;;;;70.85;46.50;;;435.30;1920.00;;;;;;4839286;29;20034;-72
2024/02/07 10:51:32;;;;;;;71.13;49.65;;;435.30;1894.40;;;;;;4839468;29;20037;-81
2024/02/07 10:54:06;;;;;;;67.47;49.30;;;435.50;1894.40;;;;;;4839047;29;20076;-74
2024/02/07 10:56:36;;;;;;;69.65;45.53;;;435.30;1920.00;;;;;;4839648;29;20055;-82
2024/02/07 10:59:04;;;;;;;63.05;46.13;;;435.20;1920.00;;;;;;4839562;29;20507;-73
2024/02/07 11:01:30;;;;;;;56.53;39.92;;;435.50;1945.60;;;;;;4839311;29;20026;-74
2024/02/07 11:04:00;;;;;;;55.72;40.40;;;435.90;1868.80;;;;;;4839133;29;20026;-75
2024/02/07 11:06:27;;;;;;;72.00;43.85;;;436.00;1894.40;;;;;;4839160;29;20099;-72
2024/02/07 11:08:58;;;;;;;71.53;47.17;;;435.80;1894.40;;;;;;4839407;29;20065;-77
2024/02/07 11:11:30;;;;;;;54.90;38.50;;;435.80;1894.40;;;;;;4839210;29;20025;-75
2024/02/07 11:13:58;;;;;;;47.23;33.50;;;435.80;1894.40;;;;;;4839255;29;20054;-72
2024/02/07 11:16:25;;;;;;;70.68;46.80;;;435.90;1894.40;;;;;;4839041;29;20022;-77
2024/02/07 11:18:51;;;;;;;83.45;56.70;;;460.80;1894.40;;;;;;4838868;29;20173;-74
2024/02/07 11:21:44;;;;;;;59.63;42.20;;;461.00;1868.80;;;;;;4838885;29;20026;-73
2024/02/07 11:24:10;;;;;;;58.85;37.05;;;460.90;1868.80;;;;;;4837123;29;20049;-74
2024/02/07 11:26:36;;;;;;;135.40;88.65;;;460.90;1868.80;;;;;;4839224;29;20030;-74
2024/02/07 11:29:03;;;;;;;157.57;99.10;;;461.10;1843.20;;;;;;4839114;29;20077;-73
2024/02/07 11:31:30;;;;;;;45.95;31.65;;;461.30;1843.20;;;;;;4839025;29;20389;-77
2024/02/07 11:33:56;;;;;;;63.60;41.85;;;461.40;1817.60;;;;;;4838377;29;20025;-72
2024/02/07 11:36:22;;;;;;;62.80;44.50;;;461.40;1817.60;;;;;;4839001;29;20082;-73
2024/02/07 11:38:55;;;;;;;69.72;58.97;;;461.60;1792.00;;;;;;4838523;29;20034;-74
2024/02/07 11:41:21;;;;;;;43.90;32.17;;;461.70;1792.00;;;;;;4839029;29;20026;-71
2024/02/07 11:43:50;;;;;;;39.65;27.58;;;461.40;1792.00;;;;;;4838460;29;20034;-73
2024/02/07 11:46:22;;;;;;;40.83;30.77;;;461.00;1817.60;;;;;;4838611;29;20042;-73
2024/02/07 11:48:53;;;;;;;44.05;31.17;;;460.90;1843.20;;;;;;4838493;29;20022;-73
2024/02/07 11:51:22;;;;;;;26.75;16.02;;;461.00;1817.60;;;;;;4838456;29;20046;-72
2024/02/07 11:53:48;;;;;;;20.38;11.90;;;460.80;1766.40;;;;;;4838487;29;20102;-72
2024/02/07 11:56:20;;;;;;;26.27;17.35;;;460.80;1766.40;;;;;;4838263;29;20030;-75
2024/02/07 11:58:49;;;;;;;19.67;14.30;;;460.90;1740.80;;;;;;4838609;29;20033;-72
2024/02/07 12:01:16;;;;;;;50.53;31.45;;;460.90;1740.80;;;;;;4838440;29;20048;-72
2024/02/07 12:03:42;;;;;;;51.13;31.50;;;461.30;1766.40;;;;;;4838617;29;20161;-72
2024/02/07 12:06:11;;;;;;;37.97;24.10;;;461.50;1766.40;;;;;;4837432;29;20080;-72
2024/02/07 12:08:41;;;;;;;54.05;36.33;;;461.40;1766.40;;;;;;4838504;29;20082;-72
2024/02/07 12:11:08;;;;;;;35.80;21.55;;;461.20;1792.00;;;;;;4838379;29;20105;-73
2024/02/07 12:13:35;;;;;;;35.10;22.55;;;461.10;1766.40;;;;;;4837607;29;20469;-72
2024/02/07 12:16:05;;;;;;;30.98;19.83;;;461.00;1792.00;;;;;;4835713;29;20038;-71
2024/02/07 12:18:32;;;;;;;77.28;50.80;;;461.00;1792.00;;;;;;4835462;29;20041;-73
2024/02/07 12:21:02;;;;;;;46.45;30.77;;;461.40;1766.40;;;;;;4819813;29;20500;-72
2024/02/07 12:23:32;;;;;;;32.38;21.95;;;461.40;1766.40;;;;;;4833602;29;20508;-74
2024/02/07 12:25:59;;;;;;;33.95;23.08;;;461.30;1792.00;;;;;;4835975;29;20125;-72
2024/02/07 12:28:26;;;;;;;29.58;21.25;;;461.40;1766.40;;;;;;4841854;29;20445;-72
2024/02/07 12:30:57;;;;;;;24.10;19.25;;;461.10;1792.00;;;;;;4838172;29;20065;-77
2024/02/07 12:33:24;;;;;;;33.33;24.20;;;461.20;1766.40;;;;;;4838011;29;20129;-73
2024/02/07 12:35:59;;;;;;;18.75;16.27;;;461.50;1766.40;;;;;;4821622;29;20034;-73
2024/02/07 12:38:25;;;;;;;37.47;24.27;;;461.50;1766.40;;;;;;4837929;29;20068;-73
2024/02/07 12:40:55;;;;;;;29.27;21.95;;;461.50;1766.40;;;;;;4838252;29;20502;-72
2024/02/07 12:43:30;;;;;;;30.70;22.08;;;461.50;1792.00;;;;;;4838100;29;20544;-73
2024/02/07 12:46:04;;;;;;;16.40;13.15;;;461.70;1766.40;;;;;;4826194;29;20042;-72
2024/02/07 12:48:32;;;;;;;23.48;16.25;;;461.50;1740.80;;;;;;4836410;29;20393;-72
2024/02/07 12:50:59;;;;;;;18.83;15.07;;;461.60;1766.40;;;;;;4838156;29;20358;-72
2024/02/07 12:53:26;;;;;;;21.05;15.20;;;461.70;1766.40;;;;;;4837473;29;20042;-72
2024/02/07 12:55:55;;;;;;;21.65;14.75;;;461.50;1792.00;;;;;;4838152;29;20529;-72
2024/02/07 12:58:21;;;;;;;28.80;17.35;;;461.50;1766.40;;;;;;4837771;29;20130;-73
2024/02/07 13:00:46;;;;;;;30.95;17.40;;;461.70;1766.40;;;;;;4838080;29;20524;-72
2024/02/07 13:03:12;;;;;;;22.23;15.73;;;461.70;1766.40;;;;;;4837979;29;20022;-72
2024/02/07 13:05:41;;;;;;;30.05;21.45;;;461.60;1766.40;;;;;;4837916;29;20034;-73
2024/02/07 13:08:11;;;;;;;92.35;53.40;;;461.70;1766.40;;;;;;4837438;29;20018;-73
2024/02/07 13:10:40;;;;;;;31.25;21.58;;;486.40;1740.80;;;;;;4838096;29;20034;-71
2024/02/07 13:13:06;;;;;;;23.08;16.92;;;461.50;1740.80;;;;;;4837856;29;20112;-72
2024/02/07 13:15:31;;;;;;;27.45;18.75;;;461.40;1740.80;;;;;;4837936;29;20113;-76
2024/02/07 13:17:57;;;;;;;42.72;31.30;;;461.40;1740.80;;;;;;4840027;29;20529;-72
2024/02/07 13:20:23;;;;;;;39.53;25.65;;;461.30;1766.40;;;;;;4840943;29;20061;-73